Latest Weather Observations for Oakey

IDQ60801

Issued at 12:32 pm EST Monday 24 July 2017 (issued every 30 minutes, with the page automatically refreshed every 10 minutes)

About weather observations | Map of weather stations | Latest weather observations for QLD | Other Formats
Station Details ID: 041359 Name: OAKEY AERO Lat: -27.40 Lon: 151.74 Height: 405.69 m
Data from the previous 72 hours. | See also: Recent months at Oakey
Date/Time
EST
Temp
°C
App
Temp
°C
Dew
Point
°C
Rel
Hum
%
Delta-T
°C
Wind Press
QNH
hPa
Press
MSL
hPa
Rain since
9am
mm
Dir  Spd
km/h
Gust
km/h
Spd
kts
Gust
kts
24/12:30pm 21.0 14.8 -2.8 20 10.2 WSW 20 28 11 15 1021.8 1021.9 0.0
24/12:00pm 19.7 15.0 -2.0 23 9.4 SW 13 22 7 12 1022.3 1022.5 0.0
24/11:30am 18.5 15.3 0.6 30 8.1 WNW 7 15 4 8 1022.7 1022.9 0.0
24/11:00am 16.9 13.5 -0.3 31 7.5 W 7 13 4 7 1023.4 1023.5 0.0
24/10:30am 15.4 11.9 -2.5 29 7.4 W 6 9 3 5 1023.6 1023.7 0.0
24/10:00am 13.8 10.2 -2.2 33 6.5 W 7 9 4 5 1023.8 1023.9 0.0
24/09:30am 12.1 8.8 -1.1 40 5.4 W 6 11 3 6 1023.7 1023.8 0.0
24/09:00am 10.2 8.3 0.8 52 3.9 CALM 0 6 0 3 1023.5 1023.6 0.0
24/08:30am 6.9 5.1 1.2 67 2.3 CALM 0 0 0 0 1023.4 1023.5 0.0
24/08:00am 4.0 1.3 0.5 78 1.4 ENE 4 7 2 4 1023.1 1023.3 0.0
24/07:30am 1.5 -1.7 -0.4 87 0.7 E 6 7 3 4 1022.6 1022.8 0.0
24/07:00am -0.9 -4.9 -2.3 90 0.4 E 9 13 5 7 1022.1 1022.3 0.0
24/06:30am -2.0 -6.2 -3.7 88 0.5 ESE 9 11 5 6 1021.9 1022.0 0.0
24/06:00am -1.9 -5.7 -3.6 88 0.5 E 7 9 4 5 1021.7 1021.8 0.0
24/05:30am -1.4 -5.0 -3.3 87 0.6 SE 6 7 3 4 1021.5 1021.6 0.0
24/05:00am -1.5 -5.3 -3.5 86 0.6 ESE 7 9 4 5 1021.3 1021.4 0.0
24/04:30am -0.9 -4.6 -2.5 89 0.5 ENE 7 9 4 5 1021.1 1021.2 0.0
24/04:00am -0.3 -3.8 -1.7 90 0.5 ENE 7 7 4 4 1021.0 1021.1 0.0
24/03:30am -0.9 -5.3 -2.3 90 0.4 E 11 13 6 7 1021.1 1021.2 0.0
24/03:00am -1.0 -5.0 -2.6 89 0.5 E 9 11 5 6 1021.1 1021.2 0.0
24/02:30am -0.5 -3.9 -2.2 88 0.6 ESE 6 7 3 4 1021.2 1021.3 0.0
24/02:00am -0.5 -4.2 -2.5 86 0.7 E 7 9 4 5 1021.4 1021.5 0.0
24/01:30am 0.3 -3.3 -1.8 86 0.8 E 7 9 4 5 1021.6 1021.7 0.0
24/01:00am 1.3 -2.1 -0.8 86 0.8 ENE 7 7 4 4 1021.7 1021.8 0.0
24/12:30am 1.4 -2.1 -1.2 83 0.9 E 7 7 4 4 1021.6 1021.7 0.0
24/12:00am 2.3 -0.9 -0.8 80 1.1 E 6 7 3 4 1021.6 1021.7 0.0
 
Date/Time
EST
Temp
°C
App
Temp
°C
Dew
Point
°C
Rel
Hum
%
Delta-T
°C
Wind Press
QNH
hPa
Press
MSL
hPa
Rain since
9am
mm
Dir  Spd
km/h
Gust
km/h
Spd
kts
Gust
kts
23/11:30pm 3.0 -0.4 -0.6 77 1.4 E 7 9 4 5 1021.6 1021.7 0.0
23/11:00pm 2.9 -0.5 -0.7 77 1.3 E 7 9 4 5 1021.6 1021.7 0.0
23/10:30pm 3.2 -0.2 -0.8 75 1.5 ENE 7 9 4 5 1021.5 1021.6 0.0
23/10:00pm 4.6 1.3 0.0 72 1.8 NE 7 9 4 5 1021.6 1021.7 0.0
23/09:30pm 5.4 1.9 1.5 76 1.6 NE 9 13 5 7 1021.5 1021.6 0.0
23/09:00pm 6.8 3.7 0.3 63 2.6 NNE 6 7 3 4 1021.3 1021.4 0.0
23/08:30pm 6.6 5.0 2.3 74 1.8 CALM 0 0 0 0 1021.1 1021.2 0.0
23/08:00pm 7.5 5.7 0.9 63 2.7 CALM 0 0 0 0 1020.9 1021.0 0.0
23/07:30pm 9.3 7.6 1.7 59 3.2 CALM 0 2 0 1 1020.8 1020.9 0.0
23/07:00pm 11.0 6.9 -0.2 46 4.6 SSW 11 13 6 7 1020.2 1020.4 0.0
23/06:30pm 12.4 7.6 0.2 43 5.2 SW 15 17 8 9 1019.8 1019.9 0.0
23/06:00pm 13.3 8.4 -0.3 39 5.7 SW 15 17 8 9 1019.5 1019.6 0.0
23/05:30pm 14.7 9.8 -0.2 36 6.4 SW 15 19 8 10 1019.2 1019.3 0.0
23/05:00pm 17.6 12.4 -0.2 30 7.8 SW 17 22 9 12 1019.0 1019.1 0.0
23/04:30pm 19.1 13.0 0.2 28 8.5 WSW 22 30 12 16 1018.9 1019.0 0.0
23/04:00pm 19.8 13.3 0.3 27 8.8 W 24 30 13 16 1018.7 1018.8 0.0
23/03:30pm 20.2 15.0 0.1 26 9.1 W 17 26 9 14 1018.6 1018.7 0.0
23/03:00pm 19.9 14.5 1.4 29 8.6 W 19 28 10 15 1018.7 1018.8 0.0
23/02:30pm 19.9 15.8 2.3 31 8.3 WNW 13 19 7 10 1018.8 1018.9 0.0
23/02:00pm 19.9 14.9 1.4 29 8.6 WSW 17 30 9 16 1019.0 1019.1 0.0
23/01:30pm 19.6 14.1 0.6 28 8.7 W 19 32 10 17 1019.5 1019.6 0.0
23/01:00pm 19.4 14.0 1.4 30 8.3 W 19 32 10 17 1019.8 1019.9 0.0
23/12:30pm 19.3 13.5 2.2 32 8.0 W 22 35 12 19 1020.3 1020.5 0.0
23/12:00pm 18.7 13.3 2.5 34 7.6 WNW 20 35 11 19 1021.0 1021.1 0.0
23/11:30am 18.2 13.5 6.1 45 6.1 WNW 20 30 11 16 1021.6 1021.7 0.0
23/11:00am 18.3 12.6 6.5 46 6.0 WNW 26 33 14 18 1022.3 1022.5 0.0
23/10:30am 17.4 11.4 7.2 51 5.2 WNW 28 35 15 19 1022.6 1022.8 0.0
23/10:00am 16.5 12.0 8.5 59 4.2 WNW 22 28 12 15 1022.9 1023.1 0.0
23/09:30am 14.2 11.8 8.6 69 2.9 NNW 11 15 6 8 1023.2 1023.4 0.0
23/09:00am 10.7 10.1 7.2 79 1.7 CALM 0 0 0 0 1023.1 1023.3 0.0
23/08:30am 7.8 5.7 5.6 86 1.0 NE 6 7 3 4 1023.2 1023.4 0.0
23/08:00am 5.5 4.4 4.9 96 0.3 CALM 0 0 0 0 1023.2 1023.4 0.0
23/07:30am 2.4 0.7 1.7 95 0.3 CALM 0 6 0 3 1023.0 1023.2 0.0
23/07:00am 0.5 -2.6 -0.1 96 0.2 ESE 6 7 3 4 1022.7 1022.9 0.0
23/06:30am -0.1 -3.9 -0.8 95 0.3 ESE 9 9 5 5 1022.5 1022.7 0.0
23/06:00am 0.2 -3.2 -0.5 95 0.3 ENE 7 9 4 5 1022.2 1022.4 0.0
23/05:30am 0.1 -3.3 -0.6 95 0.3 ESE 7 9 4 5 1021.9 1022.0 0.0
23/05:00am 1.1 -2.0 0.4 95 0.3 ESE 6 7 3 4 1021.8 1021.9 0.0
23/04:30am 1.1 -1.2 0.4 95 0.3 ESE 2 6 1 3 1021.6 1021.7 0.0
23/04:00am 1.6 -0.2 0.9 95 0.3 CALM 0 0 0 0 1021.5 1021.6 0.0
23/03:30am 1.6 -1.0 0.9 95 0.3 ENE 4 9 2 5 1021.4 1021.5 0.0
23/03:00am 1.5 -2.5 0.8 95 0.3 ESE 11 11 6 6 1021.4 1021.5 0.0
23/02:30am 1.8 -0.9 0.6 92 0.5 ESE 4 9 2 5 1021.4 1021.5 0.0
23/02:00am 2.0 -0.6 0.8 92 0.5 E 4 13 2 7 1021.6 1021.7 0.0
23/01:30am 3.0 1.3 2.1 94 0.4 CALM 0 0 0 0 1022.0 1022.1 0.0
23/01:00am 2.4 -0.6 1.1 91 0.5 NE 6 7 3 4 1022.0 1022.1 0.0
23/12:30am 2.8 -0.7 1.5 91 0.5 E 9 11 5 6 1022.1 1022.3 0.0
23/12:00am 3.0 0.1 1.2 88 0.7 ESE 6 7 3 4 1022.2 1022.4 0.0
 
Date/Time
EST
Temp
°C
App
Temp
°C
Dew
Point
°C
Rel
Hum
%
Delta-T
°C
Wind Press
QNH
hPa
Press
MSL
hPa
Rain since
9am
mm
Dir  Spd
km/h
Gust
km/h
Spd
kts
Gust
kts
22/11:30pm 4.3 2.4 2.7 89 0.7 E 2 7 1 4 1022.4 1022.6 0.0
22/11:00pm 4.3 1.4 2.5 88 0.7 E 7 11 4 6 1022.4 1022.6 0.0
22/10:30pm 5.0 2.1 2.7 85 1.0 E 7 9 4 5 1022.5 1022.7 0.0
22/10:00pm 5.0 3.4 2.2 82 1.2 CALM 0 0 0 0 1022.4 1022.6 0.0
22/09:30pm 5.3 2.5 2.3 81 1.2 ENE 6 7 3 4 1022.4 1022.6 0.0
22/09:00pm 6.0 3.2 2.3 77 1.5 ESE 6 7 3 4 1022.2 1022.4 0.0
22/08:30pm 7.6 5.1 3.5 75 1.8 NE 6 9 3 5 1022.0 1022.1 0.0
22/08:00pm 7.3 4.1 3.0 74 1.8 N 9 11 5 6 1021.9 1022.0 0.0
22/07:30pm 9.0 5.9 3.4 68 2.5 ENE 9 9 5 5 1021.5 1021.6 0.0
22/07:00pm 10.7 7.3 4.2 64 3.0 ESE 11 13 6 7 1021.3 1021.4 0.0
22/06:30pm 12.4 8.7 4.4 58 3.7 E 13 17 7 9 1021.0 1021.1 0.0
22/06:00pm 13.7 9.9 2.0 45 5.2 W 11 13 6 7 1020.5 1020.7 0.0
22/05:30pm 14.6 10.9 2.5 44 5.5 W 11 13 6 7 1020.2 1020.4 0.0
22/05:00pm 17.3 14.0 2.5 37 6.9 WNW 9 9 5 5 1020.1 1020.3 0.0
22/04:30pm 19.0 16.6 2.0 32 7.9 W 4 7 2 4 1020.1 1020.3 0.0
22/04:00pm 19.9 17.8 1.8 30 8.4 W 2 6 1 3 1020.0 1020.2 0.0
22/03:30pm 19.0 15.9 1.1 30 8.2 NW 7 11 4 6 1020.1 1020.3 0.0
22/03:00pm 18.9 16.2 0.5 29 8.3 WNW 4 9 2 5 1020.2 1020.4 0.0
22/02:30pm 18.7 15.0 -0.2 28 8.4 W 9 13 5 7 1020.5 1020.7 0.0
22/02:00pm 19.1 15.7 1.6 31 8.1 WNW 9 15 5 8 1020.8 1020.9 0.0
22/01:30pm 18.3 15.8 1.8 33 7.6 SSW 4 9 2 5 1021.3 1021.4 0.0
22/01:00pm 17.9 13.2 1.0 32 7.6 NW 15 20 8 11 1021.6 1021.7 0.0
22/12:30pm 18.3 15.4 4.8 41 6.6 NW 9 17 5 9 1022.1 1022.3 0.0
22/12:00pm 17.4 13.1 3.3 39 6.6 NNE 15 22 8 12 1022.6 1022.8 0.0
22/11:30am 16.7 13.7 4.1 43 6.0 NNE 9 15 5 8 1023.0 1023.2 0.0
22/11:00am 15.6 12.4 3.1 43 5.8 E 9 15 5 8 1023.7 1023.8 0.0
22/10:30am 14.4 11.2 2.9 46 5.3 ESE 9 15 5 8 1024.1 1024.2 0.0
22/10:00am 13.4 10.7 3.5 51 4.5 SE 7 11 4 6 1024.3 1024.5 0.0
22/09:30am 10.8 9.4 3.4 60 3.3 CALM 0 4 0 2 1024.8 1025.0 0.0
22/09:00am 8.7 7.1 2.3 64 2.7 CALM 0 4 0 2 1024.6 1024.8 0.0
22/08:30am 6.4 3.6 2.9 78 1.5 ESE 7 9 4 5 1024.3 1024.5 0.0
22/08:00am 3.9 1.1 2.1 88 0.7 ESE 6 7 3 4 1024.1 1024.2 0.0
22/07:30am 1.1 -2.2 0.4 95 0.3 ESE 7 9 4 5 1023.8 1023.9 0.0
22/07:00am -1.2 -5.2 -2.2 93 0.3 SE 9 11 5 6 1023.2 1023.4 0.0
22/06:30am -2.0 -6.1 -3.1 92 0.3 ESE 9 9 5 5 1023.0 1023.2 0.0
22/06:00am -1.9 -5.4 -3.2 91 0.3 ESE 6 7 3 4 1022.9 1023.1 0.0
22/05:30am -1.6 -5.1 -2.7 92 0.3 SE 6 7 3 4 1022.4 1022.6 0.0
22/05:00am -1.4 -5.1 -2.7 91 0.4 E 7 7 4 4 1022.0 1022.1 0.0
22/04:30am -1.1 -4.5 -2.2 92 0.3 ENE 6 7 3 4 1021.8 1021.9 0.0
22/04:00am -1.2 -5.2 -2.5 91 0.4 ESE 9 11 5 6 1021.8 1021.9 0.0
22/03:30am -1.5 -5.2 -3.1 89 0.5 ESE 7 9 4 5 1022.0 1022.1 0.0
22/03:00am -0.5 -3.9 -2.1 89 0.5 ESE 6 7 3 4 1022.0 1022.1 0.0
22/02:30am -0.4 -4.0 -1.8 90 0.5 SE 7 9 4 5 1021.8 1021.9 0.0
22/02:00am -1.0 -4.7 -2.7 88 0.5 ESE 7 9 4 5 1021.9 1022.0 0.0
22/01:30am -0.3 -3.9 -2.2 87 0.7 E 7 9 4 5 1021.9 1022.0 0.0
22/01:00am 0.3 -3.0 -1.6 87 0.7 ESE 6 7 3 4 1022.0 1022.1 0.0
22/12:30am 0.2 -3.7 -1.5 88 0.6 E 9 9 5 5 1022.2 1022.4 0.0
22/12:00am 0.4 -3.5 -1.8 85 0.8 ESE 9 9 5 5 1022.1 1022.3 0.0
 
Date/Time
EST
Temp
°C
App
Temp
°C
Dew
Point
°C
Rel
Hum
%
Delta-T
°C
Wind Press
QNH
hPa
Press
MSL
hPa
Rain since
9am
mm
Dir  Spd
km/h
Gust
km/h
Spd
kts
Gust
kts
21/11:30pm 1.5 -0.7 -1.7 79 1.1 CALM 0 0 0 0 1022.3 1022.5 0.0
21/11:00pm 1.6 -1.9 -1.1 82 1.0 ESE 7 9 4 5 1022.5 1022.7 0.0
21/10:30pm 1.0 -3.3 -1.9 81 1.1 ESE 11 13 6 7 1022.5 1022.7 0.0
21/10:00pm 2.5 0.3 -1.8 73 1.5 CALM 0 0 0 0 1022.5 1022.7 0.0
21/09:30pm 2.9 -0.4 -1.1 75 1.5 NE 6 7 3 4 1022.2 1022.4 0.0
21/09:00pm 3.8 1.0 -0.6 73 1.7 ENE 4 9 2 5 1021.8 1021.9 0.0
21/08:30pm 4.5 1.0 -1.7 64 2.3 SSE 7 9 4 5 1021.7 1021.8 0.0
21/08:00pm 5.1 0.9 -1.1 64 2.3 SSE 11 13 6 7 1021.4 1021.5 0.0
21/07:30pm 7.6 2.9 -1.6 52 3.6 SSW 13 15 7 8 1021.1 1021.2 0.0
21/07:00pm 9.2 4.2 -1.2 48 4.1 SSW 15 17 8 9 1020.8 1020.9 0.0
21/06:30pm 9.7 4.6 -1.9 44 4.6 SSW 15 17 8 9 1020.1 1020.3 0.0
21/06:00pm 10.4 5.3 -2.3 41 5.0 SSW 15 17 8 9 1019.8 1019.9 0.0
21/05:30pm 11.4 6.7 -2.0 39 5.3 SSW 13 17 7 9 1019.5 1019.6 0.0
21/05:00pm 14.0 8.6 -1.6 34 6.4 SW 17 22 9 12 1019.1 1019.2 0.0
21/04:30pm 15.9 9.8 -2.1 29 7.5 SW 20 26 11 14 1018.8 1018.9 0.0
21/04:00pm 16.6 10.0 -3.0 26 8.1 SW 22 30 12 16 1018.5 1018.6 0.0
21/03:30pm 16.7 10.0 -3.9 24 8.3 SW 22 28 12 15 1018.3 1018.4 0.0
21/03:00pm 17.4 11.5 -2.3 26 8.3 WSW 19 26 10 14 1018.3 1018.4 0.0
21/02:30pm 17.0 10.8 -3.1 25 8.3 WSW 20 26 11 14 1018.5 1018.6 0.0
21/02:00pm 16.7 10.6 -2.4 27 8.0 WSW 20 30 11 16 1018.6 1018.7 0.0
21/01:30pm 16.0 10.1 -2.0 29 7.5 WSW 19 30 10 16 1018.9 1019.0 0.0
21/01:00pm 15.3 10.3 -0.9 33 6.9 W 15 24 8 13 1019.3 1019.4 0.0

Other Formats:

Comma delimited format used in spreadsheet applications
http://www.bom.gov.au/fwo/IDQ60801/IDQ60801.94552.axf

JavaScript Object Notation format (JSON) in row-major order
http://www.bom.gov.au/fwo/IDQ60801/IDQ60801.94552.json